THY8SB LTFM-LTBS
Flight info
| Callsign | THY8SB |
|---|---|
| Flight time | 0h 54m |
| Altitude | 36000 |
| Route | RATVU1H/18 RATVU UT35 NUMTI DCT KULAR/N0441F350 UT44 ATSAL |
| Aircraft | A321/M-SDE3FGHIRWY/LB1 |
Departure
| Time | 2026-04-26 13:15 |
|---|---|
| Airport | İstanbul Airport (LTFM) |
Arrival
| Time | 2026-04-26 14:10 |
|---|---|
| Airport | Dalaman International Airport (LTBS) |
| Time | Latitude | Longitude | Altitude | Speed | Heading |
|---|---|---|---|---|---|
| 2026-04-26 12:37 | 41.25733 | 28.74837 | 334 ft | 0 kts | 359° |
| 2026-04-26 12:40 | 41.25732 | 28.74837 | 334 ft | 0 kts | 359° |
| 2026-04-26 12:57 | 41.25716 | 28.74837 | 330 ft | 4 kts | 359° |
| 2026-04-26 12:57 | 41.25693 | 28.74838 | 331 ft | 2 kts | 359° |
| 2026-04-26 12:57 | 41.25675 | 28.74839 | 332 ft | 3 kts | 358° |
| 2026-04-26 12:58 | 41.25639 | 28.74875 | 331 ft | 4 kts | 281° |
| 2026-04-26 12:58 | 41.25636 | 28.74910 | 334 ft | 4 kts | 269° |
| 2026-04-26 12:58 | 41.25638 | 28.74946 | 345 ft | 4 kts | 263° |
| 2026-04-26 12:58 | 41.25641 | 28.74981 | 330 ft | 4 kts | 263° |
| 2026-04-26 12:59 | 41.25643 | 28.75017 | 331 ft | 4 kts | 277° |
| 2026-04-26 12:59 | 41.25638 | 28.75042 | 331 ft | 4 kts | 342° |
| 2026-04-26 12:59 | 41.25620 | 28.75044 | 330 ft | 4 kts | 359° |
| 2026-04-26 12:59 | 41.25593 | 28.75045 | 331 ft | 4 kts | 359° |
| 2026-04-26 13:00 | 41.25566 | 28.75046 | 329 ft | 4 kts | 359° |
| 2026-04-26 13:00 | 41.25560 | 28.75047 | 334 ft | 0 kts | 359° |
| 2026-04-26 13:04 | 41.25564 | 28.75047 | 331 ft | 2 kts | 359° |
| 2026-04-26 13:04 | 41.25589 | 28.75046 | 332 ft | 5 kts | 359° |
| 2026-04-26 13:05 | 41.25630 | 28.75055 | 334 ft | 7 kts | 25° |
| 2026-04-26 13:05 | 41.25646 | 28.75122 | 331 ft | 9 kts | 88° |
| 2026-04-26 13:05 | 41.25649 | 28.75217 | 332 ft | 11 kts | 88° |
| 2026-04-26 13:05 | 41.25651 | 28.75332 | 334 ft | 12 kts | 89° |
| 2026-04-26 13:06 | 41.25699 | 28.75403 | 334 ft | 13 kts | 5° |
| 2026-04-26 13:06 | 41.25798 | 28.75403 | 331 ft | 15 kts | 359° |
| 2026-04-26 13:06 | 41.25911 | 28.75400 | 330 ft | 17 kts | 359° |
| 2026-04-26 13:06 | 41.26039 | 28.75397 | 332 ft | 20 kts | 359° |
| 2026-04-26 13:07 | 41.26158 | 28.75394 | 331 ft | 17 kts | 359° |
| 2026-04-26 13:07 | 41.26262 | 28.75392 | 334 ft | 16 kts | 359° |
| 2026-04-26 13:07 | 41.26382 | 28.75389 | 333 ft | 18 kts | 359° |
| 2026-04-26 13:07 | 41.26518 | 28.75386 | 334 ft | 21 kts | 359° |
| 2026-04-26 13:08 | 41.26654 | 28.75383 | 331 ft | 18 kts | 359° |
| 2026-04-26 13:08 | 41.26773 | 28.75379 | 331 ft | 14 kts | 359° |
| 2026-04-26 13:08 | 41.26878 | 28.75376 | 334 ft | 16 kts | 359° |
| 2026-04-26 13:08 | 41.26999 | 28.75374 | 332 ft | 19 kts | 359° |
| 2026-04-26 13:09 | 41.27131 | 28.75371 | 334 ft | 16 kts | 359° |
| 2026-04-26 13:09 | 41.27247 | 28.75369 | 332 ft | 17 kts | 359° |
| 2026-04-26 13:09 | 41.27371 | 28.75366 | 331 ft | 19 kts | 359° |
| 2026-04-26 13:09 | 41.27510 | 28.75362 | 330 ft | 21 kts | 359° |
| 2026-04-26 13:10 | 41.27664 | 28.75359 | 331 ft | 23 kts | 359° |
| 2026-04-26 13:10 | 41.27813 | 28.75355 | 331 ft | 19 kts | 359° |
| 2026-04-26 13:10 | 41.27932 | 28.75352 | 330 ft | 18 kts | 359° |
| 2026-04-26 13:10 | 41.28066 | 28.75349 | 333 ft | 20 kts | 359° |
| 2026-04-26 13:11 | 41.28199 | 28.75346 | 333 ft | 17 kts | 358° |
| 2026-04-26 13:11 | 41.28328 | 28.75342 | 334 ft | 20 kts | 359° |
| 2026-04-26 13:11 | 41.28455 | 28.75340 | 334 ft | 17 kts | 359° |
| 2026-04-26 13:11 | 41.28584 | 28.75338 | 330 ft | 20 kts | 359° |
| 2026-04-26 13:12 | 41.28702 | 28.75335 | 333 ft | 15 kts | 358° |
| 2026-04-26 13:12 | 41.28784 | 28.75333 | 334 ft | 11 kts | 5° |
| 2026-04-26 13:12 | 41.28817 | 28.75415 | 332 ft | 11 kts | 89° |
| 2026-04-26 13:12 | 41.28817 | 28.75469 | 332 ft | 0 kts | 90° |
| 2026-04-26 13:13 | 41.28817 | 28.75481 | 333 ft | 3 kts | 90° |
| 2026-04-26 13:14 | 41.28817 | 28.75520 | 332 ft | 6 kts | 90° |
| 2026-04-26 13:14 | 41.28815 | 28.75581 | 331 ft | 7 kts | 102° |
| 2026-04-26 13:14 | 41.28776 | 28.75623 | 332 ft | 8 kts | 169° |
| 2026-04-26 13:14 | 41.28710 | 28.75625 | 330 ft | 14 kts | 179° |
| 2026-04-26 13:15 | 41.28381 | 28.75624 | 333 ft | 83 kts | 178° |
| 2026-04-26 13:15 | 41.27583 | 28.75645 | 333 ft | 143 kts | 180° |
| 2026-04-26 13:15 | 41.26535 | 28.75627 | 839 ft | 148 kts | 183° |
| 2026-04-26 13:15 | 41.25850 | 28.75632 | 1305 ft | 149 kts | 182° |
| 2026-04-26 13:16 | 41.24523 | 28.76497 | 1871 ft | 182 kts | 136° |
| 2026-04-26 13:16 | 41.23611 | 28.77783 | 2217 ft | 203 kts | 144° |
| 2026-04-26 13:16 | 41.22402 | 28.78936 | 2544 ft | 225 kts | 149° |
| 2026-04-26 13:16 | 41.21008 | 28.80117 | 2829 ft | 252 kts | 150° |
| 2026-04-26 13:17 | 41.17722 | 28.82248 | 4084 ft | 270 kts | 176° |
| 2026-04-26 13:17 | 41.15842 | 28.82213 | 4847 ft | 272 kts | 186° |
| 2026-04-26 13:18 | 41.12010 | 28.81944 | 6381 ft | 278 kts | 186° |
| 2026-04-26 13:18 | 41.10065 | 28.81815 | 7099 ft | 281 kts | 186° |
| 2026-04-26 13:18 | 41.06116 | 28.81560 | 8536 ft | 287 kts | 186° |
| 2026-04-26 13:19 | 41.04115 | 28.81434 | 9272 ft | 289 kts | 186° |
| 2026-04-26 13:19 | 41.02093 | 28.81340 | 9983 ft | 292 kts | 185° |
| 2026-04-26 13:19 | 41.00023 | 28.81272 | 10336 ft | 308 kts | 184° |
| 2026-04-26 13:19 | 40.97806 | 28.81209 | 10462 ft | 330 kts | 184° |
| 2026-04-26 13:20 | 40.95459 | 28.81147 | 10779 ft | 343 kts | 184° |
| 2026-04-26 13:20 | 40.93054 | 28.81087 | 11316 ft | 348 kts | 184° |
| 2026-04-26 13:20 | 40.90621 | 28.81030 | 11886 ft | 351 kts | 184° |
| 2026-04-26 13:20 | 40.88164 | 28.80971 | 12473 ft | 355 kts | 184° |
| 2026-04-26 13:21 | 40.85683 | 28.80906 | 13038 ft | 359 kts | 184° |
| 2026-04-26 13:21 | 40.84020 | 28.80861 | 13424 ft | 362 kts | 184° |
| 2026-04-26 13:21 | 40.80634 | 28.80764 | 14146 ft | 366 kts | 184° |
| 2026-04-26 13:21 | 40.78073 | 28.80687 | 14680 ft | 369 kts | 183° |
| 2026-04-26 13:22 | 40.75525 | 28.80614 | 15213 ft | 372 kts | 183° |
| 2026-04-26 13:22 | 40.72929 | 28.80540 | 15751 ft | 375 kts | 183° |
| 2026-04-26 13:22 | 40.70318 | 28.80467 | 16292 ft | 377 kts | 183° |
| 2026-04-26 13:22 | 40.67683 | 28.80395 | 16797 ft | 380 kts | 183° |
| 2026-04-26 13:23 | 40.65026 | 28.80322 | 17313 ft | 383 kts | 183° |
| 2026-04-26 13:23 | 40.62351 | 28.80247 | 17821 ft | 386 kts | 183° |
| 2026-04-26 13:23 | 40.59658 | 28.80168 | 18313 ft | 389 kts | 183° |
| 2026-04-26 13:23 | 40.56942 | 28.80088 | 18743 ft | 392 kts | 183° |
| 2026-04-26 13:24 | 40.54208 | 28.80007 | 19186 ft | 394 kts | 183° |
| 2026-04-26 13:24 | 40.51454 | 28.79925 | 19624 ft | 397 kts | 182° |
| 2026-04-26 13:24 | 40.48685 | 28.79858 | 20062 ft | 399 kts | 182° |
| 2026-04-26 13:24 | 40.45898 | 28.79870 | 20492 ft | 402 kts | 180° |
| 2026-04-26 13:25 | 40.43097 | 28.80030 | 20903 ft | 405 kts | 178° |
| 2026-04-26 13:25 | 40.40279 | 28.80286 | 21320 ft | 407 kts | 176° |
| 2026-04-26 13:25 | 40.37444 | 28.80583 | 21738 ft | 410 kts | 176° |
| 2026-04-26 13:25 | 40.34594 | 28.80874 | 22135 ft | 412 kts | 176° |
| 2026-04-26 13:26 | 40.31722 | 28.81145 | 22555 ft | 414 kts | 177° |
| 2026-04-26 13:26 | 40.28873 | 28.81395 | 22965 ft | 417 kts | 177° |
| 2026-04-26 13:26 | 40.25972 | 28.81635 | 23361 ft | 419 kts | 177° |
| 2026-04-26 13:26 | 40.23052 | 28.81868 | 23737 ft | 422 kts | 177° |
| 2026-04-26 13:27 | 40.20113 | 28.82098 | 24061 ft | 424 kts | 177° |
| 2026-04-26 13:27 | 40.17158 | 28.82329 | 24383 ft | 427 kts | 177° |
| 2026-04-26 13:27 | 40.14182 | 28.82563 | 24710 ft | 429 kts | 177° |
| 2026-04-26 13:27 | 40.11194 | 28.82804 | 25037 ft | 432 kts | 177° |
| 2026-04-26 13:28 | 40.08188 | 28.83051 | 25358 ft | 434 kts | 177° |
| 2026-04-26 13:28 | 40.05169 | 28.83300 | 25676 ft | 437 kts | 177° |
| 2026-04-26 13:28 | 40.02125 | 28.83548 | 25987 ft | 439 kts | 177° |
| 2026-04-26 13:28 | 39.99066 | 28.83796 | 26298 ft | 441 kts | 177° |
| 2026-04-26 13:29 | 39.95991 | 28.84043 | 26600 ft | 444 kts | 177° |
| 2026-04-26 13:29 | 39.93911 | 28.84210 | 26805 ft | 445 kts | 177° |
| 2026-04-26 13:29 | 39.89794 | 28.84540 | 27197 ft | 449 kts | 176° |
| 2026-04-26 13:29 | 39.86674 | 28.84792 | 27511 ft | 451 kts | 176° |
| 2026-04-26 13:30 | 39.83535 | 28.85046 | 27821 ft | 453 kts | 176° |
| 2026-04-26 13:30 | 39.80384 | 28.85301 | 28134 ft | 455 kts | 176° |
| 2026-04-26 13:30 | 39.78289 | 28.85471 | 28342 ft | 456 kts | 176° |
| 2026-04-26 13:30 | 39.75112 | 28.85725 | 28646 ft | 458 kts | 176° |
| 2026-04-26 13:31 | 39.71921 | 28.85979 | 28944 ft | 461 kts | 176° |
| 2026-04-26 13:31 | 39.68715 | 28.86237 | 29222 ft | 463 kts | 176° |
| 2026-04-26 13:31 | 39.65491 | 28.86498 | 29509 ft | 465 kts | 176° |
| 2026-04-26 13:31 | 39.62252 | 28.86758 | 29759 ft | 468 kts | 176° |
| 2026-04-26 13:32 | 39.58994 | 28.87014 | 30021 ft | 470 kts | 176° |
| 2026-04-26 13:32 | 39.55723 | 28.87271 | 30246 ft | 472 kts | 176° |
| 2026-04-26 13:32 | 39.52439 | 28.87529 | 30454 ft | 474 kts | 176° |
| 2026-04-26 13:32 | 39.49143 | 28.87792 | 30663 ft | 476 kts | 176° |
| 2026-04-26 13:33 | 39.45835 | 28.88062 | 30858 ft | 477 kts | 176° |
| 2026-04-26 13:33 | 39.42519 | 28.88333 | 31109 ft | 477 kts | 176° |
| 2026-04-26 13:33 | 39.39203 | 28.88600 | 31390 ft | 477 kts | 176° |
| 2026-04-26 13:33 | 39.35888 | 28.88862 | 31668 ft | 477 kts | 176° |
| 2026-04-26 13:34 | 39.32583 | 28.89119 | 31935 ft | 477 kts | 176° |
| 2026-04-26 13:34 | 39.29261 | 28.89381 | 32188 ft | 477 kts | 176° |
| 2026-04-26 13:34 | 39.25951 | 28.89644 | 32448 ft | 477 kts | 176° |
| 2026-04-26 13:34 | 39.23760 | 28.89817 | 32605 ft | 477 kts | 176° |
| 2026-04-26 13:35 | 39.19333 | 28.90170 | 32958 ft | 477 kts | 176° |
| 2026-04-26 13:35 | 39.16020 | 28.90437 | 33205 ft | 476 kts | 176° |
| 2026-04-26 13:35 | 39.12710 | 28.90703 | 33453 ft | 476 kts | 176° |
| 2026-04-26 13:35 | 39.09405 | 28.90963 | 33711 ft | 476 kts | 176° |
| 2026-04-26 13:36 | 39.06096 | 28.91220 | 33973 ft | 476 kts | 176° |
| 2026-04-26 13:36 | 39.02792 | 28.91476 | 34183 ft | 476 kts | 176° |
| 2026-04-26 13:36 | 38.99485 | 28.91735 | 34407 ft | 475 kts | 176° |
| 2026-04-26 13:36 | 38.96234 | 28.91990 | 34625 ft | 475 kts | 176° |
| 2026-04-26 13:37 | 38.92936 | 28.92248 | 34849 ft | 474 kts | 176° |
| 2026-04-26 13:37 | 38.89649 | 28.92506 | 35076 ft | 473 kts | 176° |
| 2026-04-26 13:37 | 38.86364 | 28.92765 | 35307 ft | 472 kts | 176° |
| 2026-04-26 13:37 | 38.83090 | 28.93020 | 35525 ft | 471 kts | 176° |
| 2026-04-26 13:38 | 38.79816 | 28.93271 | 35747 ft | 471 kts | 176° |
| 2026-04-26 13:38 | 38.76550 | 28.93522 | 35926 ft | 471 kts | 176° |
| 2026-04-26 13:38 | 38.73290 | 28.93775 | 35963 ft | 469 kts | 176° |
| 2026-04-26 13:38 | 38.70028 | 28.94034 | 35520 ft | 470 kts | 175° |
| 2026-04-26 13:39 | 38.66761 | 28.94296 | 34911 ft | 470 kts | 175° |
| 2026-04-26 13:39 | 38.63510 | 28.94554 | 34407 ft | 467 kts | 175° |
| 2026-04-26 13:39 | 38.60273 | 28.94807 | 33878 ft | 465 kts | 175° |
| 2026-04-26 13:39 | 38.57051 | 28.95056 | 33334 ft | 462 kts | 175° |
| 2026-04-26 13:40 | 38.53856 | 28.95302 | 32830 ft | 459 kts | 175° |
| 2026-04-26 13:40 | 38.50680 | 28.95548 | 32319 ft | 455 kts | 175° |
| 2026-04-26 13:40 | 38.47530 | 28.95794 | 31814 ft | 452 kts | 175° |
| 2026-04-26 13:40 | 38.44403 | 28.96034 | 31311 ft | 449 kts | 175° |
| 2026-04-26 13:41 | 38.41300 | 28.96270 | 30815 ft | 445 kts | 175° |
| 2026-04-26 13:41 | 38.38215 | 28.96506 | 30316 ft | 442 kts | 174° |
| 2026-04-26 13:41 | 38.35161 | 28.96744 | 29798 ft | 438 kts | 174° |
| 2026-04-26 13:41 | 38.32133 | 28.96979 | 29313 ft | 433 kts | 174° |
| 2026-04-26 13:42 | 38.29142 | 28.97209 | 28846 ft | 428 kts | 174° |
| 2026-04-26 13:42 | 38.26187 | 28.97437 | 28399 ft | 423 kts | 175° |
| 2026-04-26 13:42 | 38.23269 | 28.97660 | 27950 ft | 417 kts | 175° |
| 2026-04-26 13:42 | 38.20388 | 28.97881 | 27526 ft | 413 kts | 175° |
| 2026-04-26 13:43 | 38.17539 | 28.98097 | 27103 ft | 407 kts | 175° |
| 2026-04-26 13:43 | 38.14726 | 28.98311 | 26691 ft | 403 kts | 175° |
| 2026-04-26 13:43 | 38.11939 | 28.98530 | 26280 ft | 399 kts | 175° |
| 2026-04-26 13:43 | 38.09219 | 28.98742 | 25877 ft | 395 kts | 174° |
| 2026-04-26 13:44 | 38.06484 | 28.98952 | 25468 ft | 391 kts | 175° |
| 2026-04-26 13:44 | 38.03777 | 28.99154 | 25061 ft | 388 kts | 175° |
| 2026-04-26 13:44 | 38.01093 | 28.99357 | 24633 ft | 385 kts | 175° |
| 2026-04-26 13:44 | 37.98427 | 28.99562 | 24218 ft | 382 kts | 175° |
| 2026-04-26 13:45 | 37.95777 | 28.99765 | 23789 ft | 380 kts | 175° |
| 2026-04-26 13:45 | 37.93145 | 28.99964 | 23332 ft | 377 kts | 175° |
| 2026-04-26 13:45 | 37.90537 | 29.00163 | 22879 ft | 373 kts | 175° |
| 2026-04-26 13:45 | 37.87961 | 29.00363 | 22455 ft | 369 kts | 175° |
| 2026-04-26 13:46 | 37.85412 | 29.00561 | 22026 ft | 365 kts | 175° |
| 2026-04-26 13:46 | 37.82881 | 29.00755 | 21596 ft | 362 kts | 175° |
| 2026-04-26 13:46 | 37.80380 | 29.00943 | 21183 ft | 358 kts | 175° |
| 2026-04-26 13:46 | 37.77899 | 29.01129 | 20759 ft | 355 kts | 175° |
| 2026-04-26 13:47 | 37.75440 | 29.01319 | 20340 ft | 353 kts | 175° |
| 2026-04-26 13:47 | 37.72997 | 29.01510 | 19933 ft | 350 kts | 175° |
| 2026-04-26 13:47 | 37.70572 | 29.01696 | 19511 ft | 348 kts | 175° |
| 2026-04-26 13:47 | 37.68198 | 29.01875 | 19104 ft | 346 kts | 175° |
| 2026-04-26 13:48 | 37.65803 | 29.02056 | 18701 ft | 343 kts | 175° |
| 2026-04-26 13:48 | 37.63426 | 29.02232 | 18293 ft | 341 kts | 175° |
| 2026-04-26 13:48 | 37.61068 | 29.02405 | 17847 ft | 338 kts | 175° |
| 2026-04-26 13:48 | 37.58735 | 29.02579 | 17442 ft | 334 kts | 175° |
| 2026-04-26 13:49 | 37.56427 | 29.02752 | 17048 ft | 330 kts | 175° |
| 2026-04-26 13:49 | 37.54144 | 29.02922 | 16663 ft | 327 kts | 175° |
| 2026-04-26 13:49 | 37.51887 | 29.03090 | 16278 ft | 323 kts | 175° |
| 2026-04-26 13:49 | 37.49648 | 29.03259 | 15892 ft | 320 kts | 175° |
| 2026-04-26 13:50 | 37.47430 | 29.03426 | 15507 ft | 318 kts | 175° |
| 2026-04-26 13:50 | 37.45231 | 29.03593 | 15127 ft | 316 kts | 175° |
| 2026-04-26 13:50 | 37.43047 | 29.03760 | 14748 ft | 314 kts | 175° |
| 2026-04-26 13:50 | 37.40874 | 29.03926 | 14376 ft | 312 kts | 175° |
| 2026-04-26 13:51 | 37.38715 | 29.04089 | 14006 ft | 310 kts | 175° |
| 2026-04-26 13:51 | 37.36568 | 29.04248 | 13614 ft | 309 kts | 175° |
| 2026-04-26 13:51 | 37.34432 | 29.04406 | 13231 ft | 306 kts | 175° |
| 2026-04-26 13:51 | 37.32319 | 29.04565 | 12864 ft | 303 kts | 175° |
| 2026-04-26 13:52 | 37.30224 | 29.04725 | 12502 ft | 300 kts | 174° |
| 2026-04-26 13:52 | 37.28150 | 29.04883 | 12147 ft | 297 kts | 175° |
| 2026-04-26 13:52 | 37.26096 | 29.05039 | 11789 ft | 295 kts | 174° |
| 2026-04-26 13:52 | 37.24060 | 29.05195 | 11442 ft | 292 kts | 174° |
| 2026-04-26 13:53 | 37.22042 | 29.05346 | 11088 ft | 290 kts | 174° |
| 2026-04-26 13:53 | 37.20019 | 29.05494 | 10973 ft | 295 kts | 175° |
| 2026-04-26 13:53 | 37.17947 | 29.05647 | 10980 ft | 301 kts | 174° |
| 2026-04-26 13:53 | 37.15879 | 29.05802 | 10942 ft | 292 kts | 174° |
| 2026-04-26 13:54 | 37.13832 | 29.05955 | 10345 ft | 299 kts | 174° |
| 2026-04-26 13:54 | 37.11746 | 29.06111 | 9893 ft | 301 kts | 174° |
| 2026-04-26 13:54 | 37.09690 | 29.06260 | 9747 ft | 290 kts | 174° |
| 2026-04-26 13:55 | 37.05820 | 29.06023 | 9383 ft | 275 kts | 195° |
| 2026-04-26 13:55 | 37.04642 | 29.05387 | 9081 ft | 279 kts | 210° |
| 2026-04-26 13:55 | 37.00903 | 29.02588 | 9032 ft | 264 kts | 209° |
| 2026-04-26 13:56 | 36.99340 | 29.01444 | 9035 ft | 264 kts | 209° |
| 2026-04-26 13:56 | 36.97775 | 29.00302 | 9052 ft | 257 kts | 209° |
| 2026-04-26 13:56 | 36.96234 | 28.99180 | 9034 ft | 256 kts | 209° |
| 2026-04-26 13:56 | 36.94706 | 28.98047 | 9026 ft | 255 kts | 213° |
| 2026-04-26 13:57 | 36.93516 | 28.96431 | 9022 ft | 256 kts | 244° |
| 2026-04-26 13:57 | 36.93122 | 28.94296 | 9026 ft | 253 kts | 275° |
| 2026-04-26 13:57 | 36.93625 | 28.92237 | 9031 ft | 249 kts | 306° |
| 2026-04-26 13:57 | 36.94812 | 28.90709 | 9048 ft | 245 kts | 323° |
| 2026-04-26 13:58 | 36.96158 | 28.89401 | 9026 ft | 244 kts | 326° |
| 2026-04-26 13:58 | 36.97515 | 28.88121 | 9027 ft | 245 kts | 326° |
| 2026-04-26 13:58 | 36.98877 | 28.86843 | 9027 ft | 244 kts | 326° |
| 2026-04-26 13:58 | 37.00239 | 28.85572 | 9027 ft | 245 kts | 326° |
| 2026-04-26 13:59 | 37.01605 | 28.84298 | 9027 ft | 245 kts | 326° |
| 2026-04-26 13:59 | 37.02967 | 28.83026 | 9030 ft | 244 kts | 326° |
| 2026-04-26 13:59 | 37.04371 | 28.81847 | 9029 ft | 241 kts | 339° |
| 2026-04-26 14:00 | 37.08417 | 28.84064 | 9038 ft | 243 kts | 72° |
| 2026-04-26 14:00 | 37.08568 | 28.86171 | 9044 ft | 247 kts | 92° |
| 2026-04-26 14:00 | 37.08456 | 28.87593 | 9042 ft | 248 kts | 95° |
| 2026-04-26 14:01 | 37.08449 | 28.90410 | 9046 ft | 244 kts | 70° |
| 2026-04-26 14:01 | 37.09296 | 28.92222 | 9040 ft | 243 kts | 49° |
| 2026-04-26 14:01 | 37.10437 | 28.93782 | 9039 ft | 243 kts | 46° |
| 2026-04-26 14:01 | 37.11542 | 28.95375 | 9041 ft | 242 kts | 59° |
| 2026-04-26 14:02 | 37.12091 | 28.97357 | 9045 ft | 244 kts | 85° |
| 2026-04-26 14:02 | 37.11856 | 28.99455 | 9039 ft | 247 kts | 111° |
| 2026-04-26 14:02 | 37.10862 | 29.01215 | 9043 ft | 251 kts | 135° |
| 2026-04-26 14:02 | 37.09571 | 29.02692 | 9036 ft | 252 kts | 136° |
| 2026-04-26 14:03 | 37.08272 | 29.04161 | 9039 ft | 252 kts | 138° |
| 2026-04-26 14:03 | 37.06720 | 29.05193 | 9036 ft | 256 kts | 164° |
| 2026-04-26 14:03 | 37.04935 | 29.05299 | 8851 ft | 263 kts | 189° |
| 2026-04-26 14:03 | 37.03206 | 29.04390 | 8172 ft | 278 kts | 211° |
| 2026-04-26 14:04 | 37.01529 | 29.03111 | 7579 ft | 287 kts | 211° |
| 2026-04-26 14:04 | 36.99792 | 29.01807 | 6987 ft | 295 kts | 211° |
| 2026-04-26 14:04 | 36.98013 | 29.00487 | 6390 ft | 300 kts | 211° |
| 2026-04-26 14:04 | 36.96252 | 28.99192 | 6006 ft | 284 kts | 210° |
| 2026-04-26 14:05 | 36.94596 | 28.97981 | 5641 ft | 267 kts | 211° |
| 2026-04-26 14:05 | 36.93146 | 28.96644 | 5295 ft | 252 kts | 221° |
| 2026-04-26 14:05 | 36.91832 | 28.95248 | 4962 ft | 245 kts | 221° |
| 2026-04-26 14:05 | 36.90529 | 28.93864 | 4629 ft | 247 kts | 221° |
| 2026-04-26 14:06 | 36.89219 | 28.92476 | 4286 ft | 246 kts | 221° |
| 2026-04-26 14:06 | 36.87935 | 28.91119 | 3952 ft | 245 kts | 221° |
| 2026-04-26 14:06 | 36.86656 | 28.89763 | 3640 ft | 235 kts | 221° |
| 2026-04-26 14:06 | 36.85407 | 28.88548 | 3343 ft | 222 kts | 212° |
| 2026-04-26 14:07 | 36.84099 | 28.87604 | 2979 ft | 213 kts | 211° |
| 2026-04-26 14:07 | 36.82854 | 28.86697 | 2665 ft | 201 kts | 212° |
| 2026-04-26 14:07 | 36.81673 | 28.85836 | 2354 ft | 192 kts | 212° |
| 2026-04-26 14:07 | 36.80541 | 28.85009 | 2063 ft | 185 kts | 213° |
| 2026-04-26 14:08 | 36.79448 | 28.84211 | 1791 ft | 178 kts | 212° |
| 2026-04-26 14:08 | 36.78418 | 28.83448 | 1519 ft | 167 kts | 216° |
| 2026-04-26 14:08 | 36.77527 | 28.82564 | 1284 ft | 162 kts | 222° |
| 2026-04-26 14:08 | 36.76672 | 28.81678 | 1084 ft | 156 kts | 220° |
| 2026-04-26 14:09 | 36.75822 | 28.80910 | 821 ft | 148 kts | 211° |
| 2026-04-26 14:09 | 36.74876 | 28.80437 | 543 ft | 146 kts | 193° |
| 2026-04-26 14:09 | 36.73885 | 28.80121 | 337 ft | 148 kts | 190° |
| 2026-04-26 14:09 | 36.72888 | 28.79789 | 136 ft | 149 kts | 189° |
| 2026-04-26 14:10 | 36.71901 | 28.79455 | 15 ft | 138 kts | 191° |
| 2026-04-26 14:10 | 36.71210 | 28.79218 | 13 ft | 60 kts | 195° |
| 2026-04-26 14:10 | 36.70918 | 28.79118 | 13 ft | 35 kts | 195° |
| 2026-04-26 14:10 | 36.70723 | 28.79030 | 13 ft | 25 kts | 214° |
| 2026-04-26 14:11 | 36.70568 | 28.78840 | 13 ft | 0 kts | 272° |
| 2026-04-26 14:11 | 36.70570 | 28.78822 | 13 ft | 4 kts | 288° |
| 2026-04-26 14:12 | 36.70600 | 28.78804 | 13 ft | 7 kts | 352° |
| 2026-04-26 14:12 | 36.70658 | 28.78815 | 13 ft | 10 kts | 16° |
| 2026-04-26 14:12 | 36.70738 | 28.78843 | 13 ft | 14 kts | 15° |
| 2026-04-26 14:12 | 36.70840 | 28.78878 | 13 ft | 17 kts | 14° |
| 2026-04-26 14:13 | 36.71107 | 28.78969 | 13 ft | 23 kts | 16° |
| 2026-04-26 14:13 | 36.71261 | 28.79020 | 13 ft | 21 kts | 13° |
| 2026-04-26 14:13 | 36.71410 | 28.79071 | 13 ft | 24 kts | 15° |
| 2026-04-26 14:14 | 36.71569 | 28.79125 | 12 ft | 22 kts | 15° |
| 2026-04-26 14:14 | 36.71706 | 28.79172 | 12 ft | 18 kts | 15° |
| 2026-04-26 14:14 | 36.71831 | 28.79211 | 12 ft | 17 kts | 4° |
| 2026-04-26 14:14 | 36.71884 | 28.79116 | 14 ft | 12 kts | 283° |
| 2026-04-26 14:15 | 36.71907 | 28.79034 | 13 ft | 11 kts | 317° |
| 2026-04-26 14:15 | 36.71977 | 28.79043 | 12 ft | 12 kts | 14° |
| 2026-04-26 14:15 | 36.72063 | 28.79072 | 12 ft | 14 kts | 14° |
| 2026-04-26 14:15 | 36.72131 | 28.79096 | 12 ft | 9 kts | 16° |
| 2026-04-26 14:16 | 36.72167 | 28.79120 | 12 ft | 4 kts | 80° |
| 2026-04-26 14:16 | 36.72164 | 28.79157 | 12 ft | 0 kts | 105° |
| 2026-04-26 14:16 | 36.72160 | 28.79171 | 12 ft | 1 kts | 105° |
| 2026-04-26 14:16 | 36.72159 | 28.79176 | 12 ft | 0 kts | 105° |